sensor_id;sensor_type;location;lat;lon;timestamp;temperature;humidity
12849;DHT22;6493;50.928;7.172;2022-12-31T00:01:48;8.80;74.80
12849;DHT22;6493;50.928;7.172;2022-12-31T00:06:53;8.80;75.00
12849;DHT22;6493;50.928;7.172;2022-12-31T00:11:56;8.80;74.80
12849;DHT22;6493;50.928;7.172;2022-12-31T00:17:00;8.90;75.10
12849;DHT22;6493;50.928;7.172;2022-12-31T00:22:05;8.90;75.30
12849;DHT22;6493;50.928;7.172;2022-12-31T00:27:09;8.90;75.70
12849;DHT22;6493;50.928;7.172;2022-12-31T00:32:12;8.90;75.90
12849;DHT22;6493;50.928;7.172;2022-12-31T00:37:17;9.00;76.10
12849;DHT22;6493;50.928;7.172;2022-12-31T00:42:21;9.00;76.10
12849;DHT22;6493;50.928;7.172;2022-12-31T00:47:24;9.10;76.30
12849;DHT22;6493;50.928;7.172;2022-12-31T00:52:30;9.10;76.00
12849;DHT22;6493;50.928;7.172;2022-12-31T00:57:33;9.20;76.10
12849;DHT22;6493;50.928;7.172;2022-12-31T01:02:37;9.20;76.50
12849;DHT22;6493;50.928;7.172;2022-12-31T01:07:42;9.30;76.70
12849;DHT22;6493;50.928;7.172;2022-12-31T01:12:46;9.40;77.40
12849;DHT22;6493;50.928;7.172;2022-12-31T01:17:50;9.40;77.40
12849;DHT22;6493;50.928;7.172;2022-12-31T01:22:55;9.50;76.50
12849;DHT22;6493;50.928;7.172;2022-12-31T01:27:58;9.60;76.90
12849;DHT22;6493;50.928;7.172;2022-12-31T01:33:03;9.70;76.60
12849;DHT22;6493;50.928;7.172;2022-12-31T01:38:08;9.70;76.80
12849;DHT22;6493;50.928;7.172;2022-12-31T01:43:15;9.80;76.90
12849;DHT22;6493;50.928;7.172;2022-12-31T01:48:23;9.90;76.90
12849;DHT22;6493;50.928;7.172;2022-12-31T01:53:31;9.90;76.90
12849;DHT22;6493;50.928;7.172;2022-12-31T01:58:37;10.00;76.70
12849;DHT22;6493;50.928;7.172;2022-12-31T02:03:41;10.10;76.80
12849;DHT22;6493;50.928;7.172;2022-12-31T02:08:47;10.10;76.70
12849;DHT22;6493;50.928;7.172;2022-12-31T02:13:52;10.10;76.60
12849;DHT22;6493;50.928;7.172;2022-12-31T02:19:24;10.20;76.50
12849;DHT22;6493;50.928;7.172;2022-12-31T02:24:58;10.20;76.80
12849;DHT22;6493;50.928;7.172;2022-12-31T02:30:10;10.30;76.70
12849;DHT22;6493;50.928;7.172;2022-12-31T02:35:19;10.30;76.20
12849;DHT22;6493;50.928;7.172;2022-12-31T02:40:24;10.40;76.20
12849;DHT22;6493;50.928;7.172;2022-12-31T02:45:33;10.40;75.90
12849;DHT22;6493;50.928;7.172;2022-12-31T02:50:43;10.40;75.90
12849;DHT22;6493;50.928;7.172;2022-12-31T02:56:02;10.50;75.90
12849;DHT22;6493;50.928;7.172;2022-12-31T03:01:09;10.50;75.80
12849;DHT22;6493;50.928;7.172;2022-12-31T03:06:33;10.60;75.70
12849;DHT22;6493;50.928;7.172;2022-12-31T03:11:36;10.60;75.50
12849;DHT22;6493;50.928;7.172;2022-12-31T03:16:59;10.70;75.30
12849;DHT22;6493;50.928;7.172;2022-12-31T03:22:03;10.70;75.00
12849;DHT22;6493;50.928;7.172;2022-12-31T03:27:24;10.80;75.20
12849;DHT22;6493;50.928;7.172;2022-12-31T03:32:29;10.80;75.80
12849;DHT22;6493;50.928;7.172;2022-12-31T03:37:33;10.80;75.10
12849;DHT22;6493;50.928;7.172;2022-12-31T03:42:37;10.90;74.90
12849;DHT22;6493;50.928;7.172;2022-12-31T03:47:42;10.90;74.80
12849;DHT22;6493;50.928;7.172;2022-12-31T03:52:46;10.90;74.70
12849;DHT22;6493;50.928;7.172;2022-12-31T03:57:50;10.90;74.60
12849;DHT22;6493;50.928;7.172;2022-12-31T04:02:55;10.90;74.50
12849;DHT22;6493;50.928;7.172;2022-12-31T04:07:59;11.00;74.40
12849;DHT22;6493;50.928;7.172;2022-12-31T04:13:04;11.00;74.40
12849;DHT22;6493;50.928;7.172;2022-12-31T04:18:09;11.00;74.30
12849;DHT22;6493;50.928;7.172;2022-12-31T04:23:12;11.10;74.40
12849;DHT22;6493;50.928;7.172;2022-12-31T04:28:16;11.10;74.20
12849;DHT22;6493;50.928;7.172;2022-12-31T04:33:21;11.10;74.10
12849;DHT22;6493;50.928;7.172;2022-12-31T04:38:25;11.10;74.10
12849;DHT22;6493;50.928;7.172;2022-12-31T04:43:30;11.10;74.10
12849;DHT22;6493;50.928;7.172;2022-12-31T04:48:37;11.20;73.90
12849;DHT22;6493;50.928;7.172;2022-12-31T04:53:41;11.10;73.80
12849;DHT22;6493;50.928;7.172;2022-12-31T04:58:44;11.20;74.60
12849;DHT22;6493;50.928;7.172;2022-12-31T05:03:50;11.20;73.80
12849;DHT22;6493;50.928;7.172;2022-12-31T05:08:54;11.20;74.40
12849;DHT22;6493;50.928;7.172;2022-12-31T05:13:57;11.30;73.50
12849;DHT22;6493;50.928;7.172;2022-12-31T05:19:02;11.30;73.50
12849;DHT22;6493;50.928;7.172;2022-12-31T05:24:07;11.30;74.00
12849;DHT22;6493;50.928;7.172;2022-12-31T05:29:11;11.40;73.20
12849;DHT22;6493;50.928;7.172;2022-12-31T05:34:16;11.40;73.40
12849;DHT22;6493;50.928;7.172;2022-12-31T05:39:20;11.50;73.30
12849;DHT22;6493;50.928;7.172;2022-12-31T05:44:23;11.50;73.10
12849;DHT22;6493;50.928;7.172;2022-12-31T05:49:28;11.50;72.80
12849;DHT22;6493;50.928;7.172;2022-12-31T05:54:32;11.60;73.00
12849;DHT22;6493;50.928;7.172;2022-12-31T05:59:37;11.60;72.50
12849;DHT22;6493;50.928;7.172;2022-12-31T06:04:41;11.70;72.60
12849;DHT22;6493;50.928;7.172;2022-12-31T06:09:45;11.70;72.60
12849;DHT22;6493;50.928;7.172;2022-12-31T06:14:49;11.80;73.40
12849;DHT22;6493;50.928;7.172;2022-12-31T06:19:54;11.90;72.10
12849;DHT22;6493;50.928;7.172;2022-12-31T06:24:57;11.90;72.00
12849;DHT22;6493;50.928;7.172;2022-12-31T06:30:01;11.90;71.70
12849;DHT22;6493;50.928;7.172;2022-12-31T06:35:07;11.90;71.80
12849;DHT22;6493;50.928;7.172;2022-12-31T06:40:12;12.00;71.80
12849;DHT22;6493;50.928;7.172;2022-12-31T06:45:16;12.00;71.60
12849;DHT22;6493;50.928;7.172;2022-12-31T06:50:21;12.00;71.70
12849;DHT22;6493;50.928;7.172;2022-12-31T06:55:25;12.10;71.80
12849;DHT22;6493;50.928;7.172;2022-12-31T07:00:29;12.10;71.60
12849;DHT22;6493;50.928;7.172;2022-12-31T07:05:41;12.10;71.30
12849;DHT22;6493;50.928;7.172;2022-12-31T07:10:51;12.10;71.30
12849;DHT22;6493;50.928;7.172;2022-12-31T07:16:05;12.10;71.50
12849;DHT22;6493;50.928;7.172;2022-12-31T07:21:15;12.10;71.30
12849;DHT22;6493;50.928;7.172;2022-12-31T07:26:29;12.10;71.10
12849;DHT22;6493;50.928;7.172;2022-12-31T07:31:49;12.10;71.10
12849;DHT22;6493;50.928;7.172;2022-12-31T07:37:04;12.20;71.10
12849;DHT22;6493;50.928;7.172;2022-12-31T07:42:14;12.20;71.00
12849;DHT22;6493;50.928;7.172;2022-12-31T07:47:21;12.20;71.10
12849;DHT22;6493;50.928;7.172;2022-12-31T07:52:27;12.20;71.00
12849;DHT22;6493;50.928;7.172;2022-12-31T07:57:34;12.20;70.90
12849;DHT22;6493;50.928;7.172;2022-12-31T08:03:00;12.30;70.80
12849;DHT22;6493;50.928;7.172;2022-12-31T08:08:17;12.20;69.50
12849;DHT22;6493;50.928;7.172;2022-12-31T08:13:24;12.30;70.50
12849;DHT22;6493;50.928;7.172;2022-12-31T08:18:29;12.30;70.20
12849;DHT22;6493;50.928;7.172;2022-12-31T08:23:38;12.30;70.50
12849;DHT22;6493;50.928;7.172;2022-12-31T08:28:56;12.30;69.80
12849;DHT22;6493;50.928;7.172;2022-12-31T08:34:08;12.30;69.80
12849;DHT22;6493;50.928;7.172;2022-12-31T08:39:26;12.30;69.30
12849;DHT22;6493;50.928;7.172;2022-12-31T08:44:35;12.30;70.00
12849;DHT22;6493;50.928;7.172;2022-12-31T08:49:41;12.40;69.70
12849;DHT22;6493;50.928;7.172;2022-12-31T08:54:47;12.40;69.70
12849;DHT22;6493;50.928;7.172;2022-12-31T09:00:00;12.40;69.50
12849;DHT22;6493;50.928;7.172;2022-12-31T09:05:10;12.40;69.30
12849;DHT22;6493;50.928;7.172;2022-12-31T09:10:22;12.40;69.60
12849;DHT22;6493;50.928;7.172;2022-12-31T09:15:32;12.50;69.40
12849;DHT22;6493;50.928;7.172;2022-12-31T09:20:39;12.50;68.70
12849;DHT22;6493;50.928;7.172;2022-12-31T09:26:02;12.50;69.20
12849;DHT22;6493;50.928;7.172;2022-12-31T09:31:13;12.50;68.60
12849;DHT22;6493;50.928;7.172;2022-12-31T09:36:22;12.50;68.80
12849;DHT22;6493;50.928;7.172;2022-12-31T09:41:53;12.50;68.30
12849;DHT22;6493;50.928;7.172;2022-12-31T09:47:52;12.60;69.10
12849;DHT22;6493;50.928;7.172;2022-12-31T09:53:11;12.60;68.70
12849;DHT22;6493;50.928;7.172;2022-12-31T09:58:28;12.60;69.10
12849;DHT22;6493;50.928;7.172;2022-12-31T10:03:42;12.70;68.80
12849;DHT22;6493;50.928;7.172;2022-12-31T10:14:46;12.70;68.50
12849;DHT22;6493;50.928;7.172;2022-12-31T10:20:19;12.70;68.30
12849;DHT22;6493;50.928;7.172;2022-12-31T10:25:47;12.70;68.40
12849;DHT22;6493;50.928;7.172;2022-12-31T10:31:04;12.80;68.60
12849;DHT22;6493;50.928;7.172;2022-12-31T10:36:18;12.80;68.90
12849;DHT22;6493;50.928;7.172;2022-12-31T10:41:53;12.80;68.50
12849;DHT22;6493;50.928;7.172;2022-12-31T10:47:15;12.80;68.50
12849;DHT22;6493;50.928;7.172;2022-12-31T10:58:22;12.90;67.70
12849;DHT22;6493;50.928;7.172;2022-12-31T11:09:49;12.90;68.50
12849;DHT22;6493;50.928;7.172;2022-12-31T11:15:11;12.90;68.30
12849;DHT22;6493;50.928;7.172;2022-12-31T11:25:53;12.90;68.00
12849;DHT22;6493;50.928;7.172;2022-12-31T11:31:14;13.00;67.80
12849;DHT22;6493;50.928;7.172;2022-12-31T11:36:31;13.00;68.00
12849;DHT22;6493;50.928;7.172;2022-12-31T11:41:45;13.00;67.20
12849;DHT22;6493;50.928;7.172;2022-12-31T11:47:00;13.10;67.10
12849;DHT22;6493;50.928;7.172;2022-12-31T11:52:38;13.10;67.20
12849;DHT22;6493;50.928;7.172;2022-12-31T11:57:50;13.20;66.80
12849;DHT22;6493;50.928;7.172;2022-12-31T12:02:58;13.20;67.00
12849;DHT22;6493;50.928;7.172;2022-12-31T12:08:03;13.20;66.80
12849;DHT22;6493;50.928;7.172;2022-12-31T12:13:17;13.20;67.10
12849;DHT22;6493;50.928;7.172;2022-12-31T12:18:28;13.20;66.60
12849;DHT22;6493;50.928;7.172;2022-12-31T12:23:31;13.20;65.90
12849;DHT22;6493;50.928;7.172;2022-12-31T12:28:45;13.20;66.20
12849;DHT22;6493;50.928;7.172;2022-12-31T12:33:50;13.10;65.60
12849;DHT22;6493;50.928;7.172;2022-12-31T12:39:00;13.20;66.00
12849;DHT22;6493;50.928;7.172;2022-12-31T12:44:07;13.20;65.10
12849;DHT22;6493;50.928;7.172;2022-12-31T12:49:19;13.20;66.00
12849;DHT22;6493;50.928;7.172;2022-12-31T12:54:33;13.20;65.80
12849;DHT22;6493;50.928;7.172;2022-12-31T13:00:04;13.20;65.80
12849;DHT22;6493;50.928;7.172;2022-12-31T13:05:18;13.20;65.50
12849;DHT22;6493;50.928;7.172;2022-12-31T13:10:42;13.20;65.40
12849;DHT22;6493;50.928;7.172;2022-12-31T13:15:55;13.20;65.30
12849;DHT22;6493;50.928;7.172;2022-12-31T13:21:03;13.20;64.80
12849;DHT22;6493;50.928;7.172;2022-12-31T13:26:14;13.20;64.60
12849;DHT22;6493;50.928;7.172;2022-12-31T13:31:23;13.20;64.90
12849;DHT22;6493;50.928;7.172;2022-12-31T13:36:29;13.20;65.30
12849;DHT22;6493;50.928;7.172;2022-12-31T13:41:38;13.30;65.60
12849;DHT22;6493;50.928;7.172;2022-12-31T13:46:47;13.20;65.00
12849;DHT22;6493;50.928;7.172;2022-12-31T13:51:55;13.20;65.50
12849;DHT22;6493;50.928;7.172;2022-12-31T13:57:03;13.20;65.50
12849;DHT22;6493;50.928;7.172;2022-12-31T14:02:26;13.10;65.60
12849;DHT22;6493;50.928;7.172;2022-12-31T14:07:36;13.00;65.60
12849;DHT22;6493;50.928;7.172;2022-12-31T14:12:51;13.00;65.90
12849;DHT22;6493;50.928;7.172;2022-12-31T14:18:03;13.00;66.10
12849;DHT22;6493;50.928;7.172;2022-12-31T14:23:17;12.90;66.10
12849;DHT22;6493;50.928;7.172;2022-12-31T14:28:26;12.90;66.20
12849;DHT22;6493;50.928;7.172;2022-12-31T14:33:50;12.90;66.40
12849;DHT22;6493;50.928;7.172;2022-12-31T14:39:12;12.80;66.10
12849;DHT22;6493;50.928;7.172;2022-12-31T14:44:32;12.80;65.80
12849;DHT22;6493;50.928;7.172;2022-12-31T14:49:47;12.80;65.70
12849;DHT22;6493;50.928;7.172;2022-12-31T14:55:02;12.80;65.80
12849;DHT22;6493;50.928;7.172;2022-12-31T15:00:34;12.80;65.80
12849;DHT22;6493;50.928;7.172;2022-12-31T15:05:50;12.80;65.70
12849;DHT22;6493;50.928;7.172;2022-12-31T15:11:08;12.80;64.70
12849;DHT22;6493;50.928;7.172;2022-12-31T15:16:28;12.80;64.30
12849;DHT22;6493;50.928;7.172;2022-12-31T15:21:57;12.80;63.80
12849;DHT22;6493;50.928;7.172;2022-12-31T15:27:04;12.80;64.60
12849;DHT22;6493;50.928;7.172;2022-12-31T15:32:16;12.70;64.30
12849;DHT22;6493;50.928;7.172;2022-12-31T15:37:31;12.80;64.20
12849;DHT22;6493;50.928;7.172;2022-12-31T15:42:41;12.80;64.20
12849;DHT22;6493;50.928;7.172;2022-12-31T15:47:55;12.70;64.10
12849;DHT22;6493;50.928;7.172;2022-12-31T15:53:02;12.70;63.60
12849;DHT22;6493;50.928;7.172;2022-12-31T15:58:10;12.70;63.60
12849;DHT22;6493;50.928;7.172;2022-12-31T16:03:20;12.60;63.80
12849;DHT22;6493;50.928;7.172;2022-12-31T16:08:29;12.60;63.10
12849;DHT22;6493;50.928;7.172;2022-12-31T16:13:35;12.60;63.10
12849;DHT22;6493;50.928;7.172;2022-12-31T16:18:42;12.60;63.10
12849;DHT22;6493;50.928;7.172;2022-12-31T16:23:50;12.60;62.30
12849;DHT22;6493;50.928;7.172;2022-12-31T16:28:55;12.60;63.20
12849;DHT22;6493;50.928;7.172;2022-12-31T16:34:05;12.50;62.40
12849;DHT22;6493;50.928;7.172;2022-12-31T16:39:24;12.60;62.90
12849;DHT22;6493;50.928;7.172;2022-12-31T16:44:29;12.50;62.40
12849;DHT22;6493;50.928;7.172;2022-12-31T16:49:34;12.50;62.40
12849;DHT22;6493;50.928;7.172;2022-12-31T16:54:44;12.50;62.20
12849;DHT22;6493;50.928;7.172;2022-12-31T16:59:54;12.50;61.30
12849;DHT22;6493;50.928;7.172;2022-12-31T17:04:59;12.50;62.10
12849;DHT22;6493;50.928;7.172;2022-12-31T17:10:14;12.40;61.70
12849;DHT22;6493;50.928;7.172;2022-12-31T17:15:19;12.40;61.80
12849;DHT22;6493;50.928;7.172;2022-12-31T17:20:26;12.40;61.60
12849;DHT22;6493;50.928;7.172;2022-12-31T17:25:33;12.30;61.50
12849;DHT22;6493;50.928;7.172;2022-12-31T17:30:39;12.30;61.40
12849;DHT22;6493;50.928;7.172;2022-12-31T17:35:44;12.30;60.80
12849;DHT22;6493;50.928;7.172;2022-12-31T17:40:50;12.30;61.20
12849;DHT22;6493;50.928;7.172;2022-12-31T17:45:55;12.20;60.10
12849;DHT22;6493;50.928;7.172;2022-12-31T17:50:59;12.20;59.70
12849;DHT22;6493;50.928;7.172;2022-12-31T17:56:06;12.20;60.30
12849;DHT22;6493;50.928;7.172;2022-12-31T18:01:20;12.20;60.60
12849;DHT22;6493;50.928;7.172;2022-12-31T18:06:24;12.10;60.20
12849;DHT22;6493;50.928;7.172;2022-12-31T18:11:30;12.10;60.00
12849;DHT22;6493;50.928;7.172;2022-12-31T18:16:34;12.10;59.80
12849;DHT22;6493;50.928;7.172;2022-12-31T18:21:38;12.10;59.60
12849;DHT22;6493;50.928;7.172;2022-12-31T18:26:43;12.10;59.60
12849;DHT22;6493;50.928;7.172;2022-12-31T18:31:48;12.00;59.30
12849;DHT22;6493;50.928;7.172;2022-12-31T18:36:52;12.00;59.40
12849;DHT22;6493;50.928;7.172;2022-12-31T18:41:56;12.00;59.60
12849;DHT22;6493;50.928;7.172;2022-12-31T18:47:00;11.90;58.80
12849;DHT22;6493;50.928;7.172;2022-12-31T18:52:04;11.90;59.20
12849;DHT22;6493;50.928;7.172;2022-12-31T18:57:10;11.90;59.00
12849;DHT22;6493;50.928;7.172;2022-12-31T19:02:17;11.80;58.90
12849;DHT22;6493;50.928;7.172;2022-12-31T19:07:21;11.80;59.00
12849;DHT22;6493;50.928;7.172;2022-12-31T19:12:26;11.70;58.60
12849;DHT22;6493;50.928;7.172;2022-12-31T19:17:30;11.70;59.10
12849;DHT22;6493;50.928;7.172;2022-12-31T19:22:33;11.70;58.80
12849;DHT22;6493;50.928;7.172;2022-12-31T19:27:38;11.70;58.80
12849;DHT22;6493;50.928;7.172;2022-12-31T19:32:42;11.70;58.70
12849;DHT22;6493;50.928;7.172;2022-12-31T19:37:47;11.70;57.90
12849;DHT22;6493;50.928;7.172;2022-12-31T19:42:53;11.60;58.60
12849;DHT22;6493;50.928;7.172;2022-12-31T19:47:57;11.60;57.80
12849;DHT22;6493;50.928;7.172;2022-12-31T19:53:00;11.60;57.80
12849;DHT22;6493;50.928;7.172;2022-12-31T19:58:06;11.70;57.60
12849;DHT22;6493;50.928;7.172;2022-12-31T20:03:10;11.60;57.20
12849;DHT22;6493;50.928;7.172;2022-12-31T20:08:14;11.70;57.50
12849;DHT22;6493;50.928;7.172;2022-12-31T20:13:19;11.60;57.00
12849;DHT22;6493;50.928;7.172;2022-12-31T20:18:23;11.60;57.30
12849;DHT22;6493;50.928;7.172;2022-12-31T20:23:26;11.70;57.00
12849;DHT22;6493;50.928;7.172;2022-12-31T20:28:31;11.70;57.40
12849;DHT22;6493;50.928;7.172;2022-12-31T20:33:36;11.70;57.00
12849;DHT22;6493;50.928;7.172;2022-12-31T20:38:40;11.70;57.90
12849;DHT22;6493;50.928;7.172;2022-12-31T20:43:45;11.60;57.20
12849;DHT22;6493;50.928;7.172;2022-12-31T20:48:50;11.60;57.10
12849;DHT22;6493;50.928;7.172;2022-12-31T20:53:55;11.60;56.30
12849;DHT22;6493;50.928;7.172;2022-12-31T20:59:01;11.60;56.30
12849;DHT22;6493;50.928;7.172;2022-12-31T21:04:05;11.60;55.80
12849;DHT22;6493;50.928;7.172;2022-12-31T21:09:09;11.60;56.20
12849;DHT22;6493;50.928;7.172;2022-12-31T21:14:14;11.60;56.10
12849;DHT22;6493;50.928;7.172;2022-12-31T21:19:18;11.60;55.80
12849;DHT22;6493;50.928;7.172;2022-12-31T21:24:22;11.50;55.80
12849;DHT22;6493;50.928;7.172;2022-12-31T21:29:27;11.60;55.80
12849;DHT22;6493;50.928;7.172;2022-12-31T21:34:36;11.60;56.10
12849;DHT22;6493;50.928;7.172;2022-12-31T21:39:39;11.60;55.80
12849;DHT22;6493;50.928;7.172;2022-12-31T21:44:44;11.60;55.80
12849;DHT22;6493;50.928;7.172;2022-12-31T21:49:48;11.60;56.30
12849;DHT22;6493;50.928;7.172;2022-12-31T21:54:51;11.60;56.60
12849;DHT22;6493;50.928;7.172;2022-12-31T22:00:15;11.50;55.90
12849;DHT22;6493;50.928;7.172;2022-12-31T22:05:46;11.50;55.50
12849;DHT22;6493;50.928;7.172;2022-12-31T22:10:51;11.50;55.70
12849;DHT22;6493;50.928;7.172;2022-12-31T22:15:59;11.40;55.00
12849;DHT22;6493;50.928;7.172;2022-12-31T22:21:09;11.40;55.50
12849;DHT22;6493;50.928;7.172;2022-12-31T22:26:22;11.40;55.00
12849;DHT22;6493;50.928;7.172;2022-12-31T22:31:28;11.40;55.20
12849;DHT22;6493;50.928;7.172;2022-12-31T22:36:32;11.50;55.10
12849;DHT22;6493;50.928;7.172;2022-12-31T22:41:36;11.50;54.50
12849;DHT22;6493;50.928;7.172;2022-12-31T22:46:43;11.50;55.20
12849;DHT22;6493;50.928;7.172;2022-12-31T22:51:50;11.50;54.60
12849;DHT22;6493;50.928;7.172;2022-12-31T22:57:00;11.60;55.30
12849;DHT22;6493;50.928;7.172;2022-12-31T23:02:05;11.60;55.10
12849;DHT22;6493;50.928;7.172;2022-12-31T23:07:09;11.60;55.10
12849;DHT22;6493;50.928;7.172;2022-12-31T23:12:12;11.50;54.20
12849;DHT22;6493;50.928;7.172;2022-12-31T23:17:19;11.50;54.60
12849;DHT22;6493;50.928;7.172;2022-12-31T23:22:41;11.50;54.80
12849;DHT22;6493;50.928;7.172;2022-12-31T23:28:02;11.60;54.80
12849;DHT22;6493;50.928;7.172;2022-12-31T23:33:12;11.60;55.20
12849;DHT22;6493;50.928;7.172;2022-12-31T23:38:16;11.60;54.80
12849;DHT22;6493;50.928;7.172;2022-12-31T23:43:21;11.60;54.60
12849;DHT22;6493;50.928;7.172;2022-12-31T23:48:26;11.50;54.40
12849;DHT22;6493;50.928;7.172;2022-12-31T23:53:30;11.60;54.70
12849;DHT22;6493;50.928;7.172;2022-12-31T23:58:33;11.60;54.70
